Data for 08/08/2009

Time Sea-Level Adjusted Pressure Absolute Pressure Temperature Relative Humidity Dew Point   
(mb) (inHg) (mb) (inHg) (C) (F) (%) (C) (F)
00:05 1019 30.09 848 25.04 11.2 52.1 72 6.4 43.5
00:10 1019 30.09 848 25.04 11.3 52.3 71 6.3 43.3
00:15 1019 30.09 848 25.04 11.3 52.3 71 6.3 43.3
00:20 1019 30.09 848 25.04 11.3 52.4 71 6.3 43.3
00:25 1019 30.09 848 25.04 11.3 52.4 72 6.4 43.6
00:30 1019 30.09 848 25.04 11.2 52.2 72 6.5 43.6
00:35 1019 30.09 848 25.04 11.2 52.1 73 6.5 43.7
00:40 1019 30.09 848 25.04 11.2 52.1 73 6.5 43.6
00:45 1019 30.09 848 25.04 11.1 52 74 6.6 43.9
00:50 1019 30.09 848 25.04 11 51.8 74 6.6 43.8
00:55 1019 30.09 848 25.04 10.9 51.7 75 6.7 44
01:00 1019 30.09 848 25.04 10.9 51.6 75 6.6 43.8
01:05 1019 30.09 848 25.04 10.9 51.7 73 6.4 43.4
01:10 1019 30.09 848 25.04 11 51.9 74 6.6 43.8
01:15 1019 30.09 848 25.04 11 51.8 74 6.5 43.8
01:20 1019 30.09 848 25.04 11 51.8 74 6.6 44
01:25 1019 30.09 848 25.04 10.9 51.6 73 6.3 43.3
01:30 1019 30.09 848 25.04 10.9 51.7 72 6.1 43
01:35 1019 30.09 848 25.04 11 51.8 72 6.2 43.2
01:40 1019 30.09 848 25.04 11 51.8 71 6.1 42.9
01:45 1019 30.09 848 25.04 11 51.9 70 5.9 42.6
01:50 1019 30.09 848 25.04 11 51.8 71 6 42.9
01:55 1019 30.09 848 25.04 10.8 51.5 75 6.6 43.8
02:00 1019 30.09 848 25.04 10.5 50.9 76 6.5 43.8
02:05 1019 30.09 848 25.04 10.4 50.7 75 6.1 43.1
02:10 1019 30.09 848 25.04 10.4 50.8 76 6.5 43.6
02:15 1019 30.09 848 25.04 10.3 50.6 77 6.5 43.7
02:20 1019 30.09 848 25.04 10.2 50.4 78 6.5 43.8
02:25 1019 30.09 848 25.04 10 49.9 78 6.4 43.5
02:30 1019 30.09 848 25.04 9.9 49.9 78 6.3 43.4
02:35 1019 30.09 848 25.04 10 49.9 78 6.4 43.5
02:40 1019 30.09 848 25.04 9.9 49.9 79 6.4 43.6
02:45 1019 30.09 848 25.04 9.9 49.8 79 6.4 43.6
02:50 1019 30.09 848 25.04 9.7 49.5 80 6.5 43.7
02:55 1019 30.09 848 25.04 9.5 49.1 82 6.5 43.7
03:00 1019 30.09 848 25.04 9.4 49 81 6.4 43.5
03:05 1019 30.09 848 25.04 9.5 49.1 81 6.5 43.7
03:10 1019 30.09 848 25.04 9.5 49.1 82 6.7 44
03:15 1019 30.09 848 25.04 9.4 49 84 6.8 44.3
03:20 1019 30.09 848 25.04 9.4 48.9 84 6.8 44.3
03:25 1019 30.09 848 25.04 9.3 48.8 85 6.9 44.4
03:30 1019 30.09 848 25.04 9.4 48.9 85 7.1 44.7
03:35 1019 30.09 848 25.04 9.6 49.2 85 7.2 44.9
03:40 1019 30.09 848 25.04 9.6 49.2 88 7.6 45.7
03:45 1019 30.09 848 25.04 9.5 49.2 87 7.5 45.5
03:50 1019 30.09 848 25.04 9.5 49.1 88 7.5 45.6
03:55 1019 30.09 848 25.04 9.5 49 88 7.6 45.6
04:00 1019 30.09 848 25.04 9.4 48.9 88 7.5 45.4
04:05 1019 30.09 848 25.04 9.3 48.7 88 7.4 45.4
04:10 1019 30.09 848 25.04 9.3 48.7 88 7.4 45.3
04:15 1019 30.09 848 25.04 9.2 48.6 88 7.3 45.2
04:20 1019 30.09 848 25.04 9.2 48.6 87 7.1 44.8
04:25 1019 30.09 848 25.04 9.2 48.6 86 7 44.5
04:30 1019 30.09 848 25.04 9.2 48.6 86 6.9 44.5
04:35 1019 30.09 848 25.04 9.2 48.6 85 6.8 44.3
04:40 1019 30.09 848 25.04 9.2 48.6 85 6.8 44.2
04:45 1019 30.09 848 25.04 9.2 48.6 84 6.7 44
04:50 1019 30.09 848 25.04 9.2 48.6 84 6.8 44.2
04:55 1019 30.09 848 25.04 9.2 48.5 84 6.6 43.9
05:00 1019 30.09 848 25.04 9.1 48.4 84 6.5 43.8
05:05 1019 30.09 848 25.04 9.1 48.4 84 6.5 43.7
05:10 1019 30.09 848 25.04 9 48.3 83 6.4 43.5
05:15 1019 30.09 848 25.04 9.1 48.4 83 6.4 43.5
05:20 1019 30.09 848 25.04 8.9 48 86 6.7 44
05:25 1019 30.09 848 25.04 8.4 47.1 87 6.4 43.5
05:30 1019 30.09 848 25.04 8 46.4 88 6.2 43.1
05:35 1019 30.09 848 25.04 7.9 46.2 89 6.1 43
05:40 1019 30.09 848 25.04 8 46.4 89 6.2 43.2
05:45 1019 30.09 848 25.04 8 46.5 89 6.3 43.3
05:50 1019 30.09 849 25.07 8.1 46.6 88 6.3 43.3
05:55 1019 30.09 849 25.07 8 46.5 89 6.3 43.4
06:00 1020 30.12 849 25.07 8 46.5 89 6.4 43.5
06:05 1020 30.12 849 25.07 8.1 46.5 89 6.4 43.5
06:10 1020 30.12 849 25.07 8.2 46.7 89 6.4 43.5
06:15 1020 30.12 849 25.07 8.3 46.9 88 6.4 43.5
06:20 1020 30.12 849 25.07 8.4 47.1 87 6.4 43.5
06:25 1020 30.12 849 25.07 8.4 47.1 88 6.5 43.6
06:30 1020 30.12 849 25.07 8.5 47.2 87 6.5 43.6
06:35 1020 30.12 849 25.07 8.6 47.4 87 6.5 43.7
06:40 1020 30.12 849 25.07 8.6 47.5 87 6.6 43.9
06:45 1020 30.12 849 25.07 8.6 47.5 87 6.6 43.9
06:50 1020 30.12 849 25.07 8.7 47.6 87 6.6 43.8
06:55 1020 30.12 849 25.07 8.8 47.9 86 6.6 43.9
07:00 1020 30.12 849 25.07 9 48.2 85 6.7 44
07:05 1020 30.12 849 25.07 9.1 48.3 85 6.8 44.2
07:10 1020 30.12 849 25.07 9.2 48.6 85 6.8 44.3
07:15 1020 30.12 849 25.07 9.4 48.9 84 6.9 44.4
07:20 1020 30.12 849 25.07 9.6 49.3 83 7 44.5
07:25 1020 30.12 849 25.07 9.8 49.7 82 7 44.6
07:30 1020 30.12 849 25.07 10.2 50.3 81 7.2 44.9
07:35 1020 30.12 849 25.07 9.8 49.7 83 7.1 44.8
07:40 1020 30.12 849 25.07 9.9 49.7 83 7.1 44.7
07:45 1020 30.12 849 25.07 10 49.9 82 7 44.6
07:50 1020 30.12 849 25.07 10 50 82 7.2 44.9
07:55 1020 30.12 849 25.07 9.9 49.9 82 7.1 44.7
08:00 1020 30.12 849 25.07 9.8 49.6 82 6.9 44.4
08:05 1020 30.12 849 25.07 9.8 49.6 83 7 44.5
08:10 1020 30.12 849 25.07 9.9 49.8 82 7 44.7
08:15 1020 30.12 849 25.07 10 50 83 7.2 45
08:20 1020 30.12 849 25.07 10.1 50.2 82 7.1 44.8
08:25 1020 30.12 850 25.1 10.1 50.3 82 7.2 44.9
08:30 1020 30.12 850 25.1 10.3 50.5 81 7.3 45.1
08:35 1020 30.12 850 25.1 10.6 51 81 7.4 45.3
08:40 1020 30.12 849 25.07 10.7 51.3 80 7.5 45.5
08:45 1020 30.12 849 25.07 10.9 51.6 80 7.6 45.6
08:50 1020 30.12 849 25.07 11.4 52.4 76 7.3 45.1
08:55 1020 30.12 849 25.07 12.3 54.1 72 7.4 45.2
09:00 1020 30.12 849 25.07 13.1 55.6 67 7.2 45
09:05 1020 30.12 849 25.07 13.6 56.5 66 7.4 45.4
09:10 1020 30.12 849 25.07 13.2 55.8 66 7.1 44.8
09:15 1020 30.12 849 25.07 12.9 55.2 69 7.3 45.2
09:20 1020 30.12 849 25.07 13.6 56.4 65 7.2 45
09:25 1020 30.12 849 25.07 13.8 56.8 65 7.3 45.1
09:30 1020 30.12 849 25.07 13.7 56.6 66 7.4 45.3
09:35 1020 30.12 849 25.07 13.8 56.8 63 6.9 44.4
09:40 1020 30.12 849 25.07 14.2 57.5 62 7 44.7
09:45 1020 30.12 849 25.07 14.8 58.6 59 7.1 44.7
09:50 1020 30.12 849 25.07 15.3 59.5 58 7.1 44.8
09:55 1020 30.12 849 25.07 15.2 59.4 59 7.4 45.3
10:00 1020 30.12 849 25.07 15 58.9 61 7.5 45.5
10:05 1020 30.12 849 25.07 15.2 59.4 58 7.2 44.9
10:10 1020 30.12 849 25.07 15.8 60.4 56 7.2 44.9
10:15 1020 30.12 849 25.07 16.1 61 56 7.5 45.5
10:20 1020 30.12 849 25.07 15.9 60.6 56 7.3 45.2
10:25 1020 30.12 849 25.07 15.8 60.4 58 7.5 45.5
10:30 1020 30.12 849 25.07 16 60.9 55 7.1 44.7
10:35 1020 30.12 849 25.07 16.5 61.6 53 6.9 44.5
10:40 1020 30.12 849 25.07 16.9 62.5 51 6.8 44.2
10:45 1020 30.12 849 25.07 16.7 62 54 7.5 45.5
10:50 1020 30.12 849 25.07 16.5 61.6 56 7.7 45.9
10:55 1020 30.12 849 25.07 16.5 61.6 54 7.3 45.1
11:00 1020 30.12 849 25.07 15.8 60.4 58 7.7 45.9
11:05 1020 30.12 849 25.07 16.3 61.4 53 6.7 44.1
11:10 1020 30.12 849 25.07 17 62.5 50 6.7 44.1
11:15 1020 30.12 849 25.07 17 62.6 52 7.2 44.9
11:20 1020 30.12 849 25.07 17.6 63.7 50 7.1 44.8
11:25 1020 30.12 849 25.07 17.7 63.9 49 7.1 44.8
11:30 1020 30.12 849 25.07 17.7 63.8 50 7.2 45
11:35 1020 30.12 849 25.07 16.8 62.2 54 7.5 45.5
11:40 1020 30.12 849 25.07 16.4 61.4 52 6.6 43.9
11:45 1020 30.12 849 25.07 17.1 62.9 51 7 44.6
11:50 1020 30.12 849 25.07 17.6 63.6 48 6.5 43.6
11:55 1020 30.12 849 25.07 18.1 64.6 50 7.6 45.7
12:00 1020 30.12 849 25.07 17.9 64.2 51 7.7 45.8
12:05 1020 30.12 849 25.07 17.6 63.7 53 8 46.4
12:10 1020 30.12 849 25.07 16.8 62.2 53 7.3 45.1
12:15 1020 30.12 849 25.07 17.5 63.5 52 7.7 45.9
12:20 1020 30.12 849 25.07 17.1 62.7 53 7.5 45.5
12:25 1020 30.12 849 25.07 17.4 63.3 48 6.3 43.4
12:30 1020 30.12 849 25.07 17.6 63.7 48 6.6 43.9
12:35 1020 30.12 849 25.07 17.4 63.4 51 7.2 45
12:40 1020 30.12 849 25.07 18 64.5 46 6.5 43.7
12:45 1020 30.12 849 25.07 18.8 65.8 44 6.3 43.4
12:50 1020 30.12 849 25.07 18 64.3 48 6.9 44.4
12:55 1020 30.12 849 25.07 17.6 63.6 50 7 44.6
13:00 1020 30.12 849 25.07 18.8 65.8 44 6.2 43.2
13:05 1019 30.09 849 25.07 18.9 65.9 47 7.4 45.3
13:10 1019 30.09 849 25.07 18.4 65.1 46 6.8 44.2
13:15 1019 30.09 849 25.07 18.3 64.9 48 7.2 44.9
13:20 1019 30.09 849 25.07 18.1 64.6 46 6.3 43.4
13:25 1019 30.09 848 25.04 18.3 64.9 47 7 44.5
13:30 1019 30.09 849 25.07 18.2 64.7 45 6.1 43
13:35 1019 30.09 848 25.04 18.8 65.9 42 5.8 42.4
13:40 1019 30.09 848 25.04 19.7 67.4 40 5.7 42.2
13:45 1019 30.09 848 25.04 19.5 67 42 6.4 43.5
13:50 1019 30.09 848 25.04 19.5 67 39 5.4 41.7
13:55 1019 30.09 848 25.04 19.5 67.1 43 6.6 44
14:00 1019 30.09 849 25.07 19.6 67.3 38 5 41
14:05 1019 30.09 849 25.07 19.6 67.3 40 5.9 42.7
14:10 1019 30.09 849 25.07 19.1 66.4 40 5.5 41.9
14:15 1019 30.09 849 25.07 19.2 66.6 41 5.7 42.2
14:20 1019 30.09 849 25.07 18.3 64.9 44 5.9 42.6
14:25 1020 30.12 849 25.07 17.5 63.5 49 6.9 44.4
14:30 1020 30.12 849 25.07 15.3 59.5 51 5.2 41.4
14:35 1020 30.12 849 25.07 14.1 57.3 62 7 44.6
14:40 1020 30.12 849 25.07 11.9 53.4 66 5.8 42.5
14:45 1020 30.12 849 25.07 11.5 52.7 70 6.3 43.4
14:50 1020 30.12 849 25.07 11.3 52.4 65 5.1 41.1
14:55 1020 30.12 849 25.07 11.6 52.8 68 5.8 42.4
15:00 1020 30.12 849 25.07 11 51.7 75 6.7 44
15:05 1020 30.12 849 25.07 11.2 52.1 54 2.3 36.1
15:10 1020 30.12 849 25.07 12.5 54.4 64 5.9 42.6
15:15 1020 30.12 849 25.07 12.4 54.2 76 8.2 46.8
15:20 1020 30.12 849 25.07 11.5 52.7 71 6.5 43.6
15:25 1020 30.12 849 25.07 11.7 53.1 71 6.7 44
15:30 1020 30.12 849 25.07 12 53.5 69 6.6 43.8
15:35 1020 30.12 849 25.07 12.1 53.7 67 6.2 43.2
15:40 1020 30.12 849 25.07 12.4 54.2 74 7.9 46.3
15:45 1020 30.12 849 25.07 12.4 54.2 74 8 46.3
15:50 1020 30.12 849 25.07 12.7 54.8 72 7.9 46.2
15:55 1020 30.12 849 25.07 13.6 56.5 66 7.5 45.5
16:00 1020 30.12 849 25.07 14.6 58.2 64 7.9 46.1
16:05 1020 30.12 849 25.07 15.2 59.4 66 8.9 48.1
16:10 1020 30.12 849 25.07 15.5 60 65 9 48.2
16:15 1020 30.12 849 25.07 15.7 60.2 60 8 46.3
16:20 1020 30.12 849 25.07 16 60.7 55 7 44.6
16:25 1020 30.12 849 25.07 16 60.8 56 7.2 44.9
16:30 1020 30.12 849 25.07 15.7 60.2 56 6.9 44.5
16:35 1019 30.09 849 25.07 15.5 59.8 54 6.3 43.3
16:40 1019 30.09 849 25.07 15.4 59.7 55 6.4 43.5
16:45 1019 30.09 849 25.07 15.5 59.9 54 6.3 43.3
16:50 1019 30.09 849 25.07 15.8 60.5 50 5.4 41.8
16:55 1019 30.09 849 25.07 16.2 61.2 52 6.4 43.5
17:00 1019 30.09 849 25.07 16.3 61.3 48 5.3 41.5
17:05 1020 30.12 849 25.07 16.2 61.1 49 5.6 42.1
17:10 1020 30.12 849 25.07 16.1 60.9 50 5.8 42.4
17:15 1020 30.12 849 25.07 16.1 60.9 52 6.3 43.3
17:20 1020 30.12 849 25.07 16 60.8 53 6.4 43.6
17:25 1020 30.12 849 25.07 16.1 60.9 50 5.7 42.3
17:30 1020 30.12 849 25.07 15.9 60.6 55 6.9 44.4
17:35 1020 30.12 849 25.07 14.8 58.7 60 7.3 45.1
17:40 1020 30.12 849 25.07 14 57.2 65 7.5 45.5
17:45 1020 30.12 849 25.07 13.5 56.4 62 6.4 43.4
17:50 1020 30.12 849 25.07 13.3 56 61 6 42.8
17:55 1020 30.12 849 25.07 13.4 56.2 62 6.4 43.6
18:00 1020 30.12 849 25.07 13.5 56.2 58 5.5 41.9
18:05 1020 30.12 849 25.07 13.7 56.6 58 5.6 42.1
18:10 1020 30.12 849 25.07 13.6 56.5 55 4.9 40.8
18:15 1020 30.12 849 25.07 13.7 56.6 58 5.6 42.1
18:20 1020 30.12 849 25.07 13.7 56.7 58 5.7 42.3
18:25 1020 30.12 849 25.07 13.6 56.5 62 6.5 43.6
18:30 1020 30.12 849 25.07 13.4 56.1 65 6.9 44.5
18:35 1020 30.12 849 25.07 13.4 56 63 6.5 43.7
18:40 1020 30.12 849 25.07 13.5 56.3 63 6.6 43.8
18:45 1020 30.12 849 25.07 13.8 56.8 64 7.2 45
18:50 1020 30.12 849 25.07 14 57.2 62 6.8 44.2
18:55 1020 30.12 849 25.07 14.1 57.3 62 7 44.6
19:00 1020 30.12 849 25.07 14.2 57.6 57 6 42.8
19:05 1020 30.12 849 25.07 14.6 58.3 56 5.9 42.6
19:10 1020 30.12 849 25.07 14.7 58.5 56 6.2 43.1
19:15 1020 30.12 849 25.07 14.8 58.7 53 5.4 41.8
19:20 1020 30.12 849 25.07 14.8 58.7 55 5.9 42.6
19:25 1020 30.12 849 25.07 14.8 58.7 54 5.8 42.4
19:30 1020 30.12 849 25.07 14.7 58.5 56 6.2 43.2
19:35 1020 30.12 849 25.07 14.7 58.4 53 5.4 41.7
19:40 1020 30.12 849 25.07 14.8 58.6 53 5.5 41.8
19:45 1020 30.12 849 25.07 14.8 58.6 54 5.8 42.4
19:50 1020 30.12 849 25.07 14.7 58.5 56 6 42.9
19:55 1020 30.12 849 25.07 14.6 58.3 57 6.3 43.3
20:00 1020 30.12 849 25.07 14.4 58 58 6.3 43.3
20:05 1020 30.12 849 25.07 14.3 57.7 57 5.9 42.6
20:10 1020 30.12 849 25.07 14.1 57.4 59 6.2 43.2
20:15 1020 30.12 849 25.07 14 57.3 59 6.3 43.4
20:20 1020 30.12 849 25.07 13.9 56.9 61 6.6 44
20:25 1020 30.12 849 25.07 13.7 56.6 60 6.2 43.2
20:30 1020 30.12 849 25.07 13.6 56.4 62 6.6 43.8
20:35 1020 30.12 849 25.07 13.3 55.9 64 6.8 44.2
20:40 1020 30.12 849 25.07 13.2 55.7 64 6.5 43.6
20:45 1020 30.12 849 25.07 13.1 55.6 64 6.5 43.8
20:50 1020 30.12 850 25.1 13 55.3 67 7 44.6
20:55 1020 30.12 850 25.1 12.7 54.8 68 6.9 44.5
21:00 1020 30.12 850 25.1 12.7 54.8 66 6.6 43.9
21:05 1020 30.12 850 25.1 12.7 54.9 68 6.9 44.5
21:10 1021 30.15 850 25.1 12.6 54.8 66 6.6 43.8
21:15 1021 30.15 850 25.1 12.8 55 64 6.2 43.1
21:20 1021 30.15 850 25.1 12.9 55.1 62 5.9 42.5
21:25 1021 30.15 850 25.1 12.9 55.2 63 6 42.7
21:30 1021 30.15 850 25.1 12.7 54.9 62 5.7 42.3
21:35 1021 30.15 850 25.1 12.8 55 63 5.9 42.5
21:40 1021 30.15 850 25.1 12.5 54.5 63 5.6 42.1
21:45 1021 30.15 850 25.1 12.2 54 63 5.5 41.9
21:50 1021 30.15 850 25.1 12.1 53.8 65 5.8 42.5
21:55 1021 30.15 850 25.1 11.9 53.4 67 6 42.8
22:00 1021 30.15 850 25.1 11.7 53 68 5.9 42.6
22:05 1021 30.15 850 25.1 11.6 52.9 69 6.1 42.9
22:10 1021 30.15 850 25.1 11.4 52.4 70 6.1 43.1
22:15 1021 30.15 850 25.1 11.3 52.3 68 5.7 42.3
22:20 1021 30.15 850 25.1 11.7 53.1 66 5.7 42.3
22:25 1021 30.15 850 25.1 11.6 52.9 68 6 42.8
22:30 1021 30.15 850 25.1 11.5 52.6 69 6 42.7
22:35 1021 30.15 850 25.1 11.3 52.4 69 6 42.8
22:40 1021 30.15 850 25.1 11.2 52.1 69 5.7 42.3
22:45 1021 30.15 850 25.1 11.3 52.4 67 5.4 41.7
22:50 1021 30.15 850 25.1 11.5 52.8 67 5.7 42.3
22:55 1021 30.15 850 25.1 11.5 52.8 67 5.6 42.1
23:00 1021 30.15 850 25.1 11.4 52.4 69 5.9 42.6
23:05 1021 30.15 850 25.1 11 51.8 72 6.2 43.2
23:10 1021 30.15 850 25.1 10.9 51.7 72 6.1 43.1
23:15 1021 30.15 850 25.1 10.7 51.2 77 6.9 44.4
23:20 1021 30.15 850 25.1 10.3 50.5 77 6.4 43.5
23:25 1021 30.15 850 25.1 10.4 50.8 73 5.8 42.5
23:30 1021 30.15 850 25.1 10.7 51.3 71 5.7 42.3
23:35 1021 30.15 850 25.1 10.8 51.4 73 6.1 43
23:40 1021 30.15 850 25.1 10.6 51.1 73 6.1 43
23:45 1021 30.15 850 25.1 10.7 51.2 74 6.2 43.1
23:50 1021 30.15 850 25.1 10.7 51.3 72 5.9 42.6
23:55 1021 30.15 850 25.1 10.8 51.4 73 6.1 42.9
24:00 1021 30.15 850 25.1 10.6 51.1 75 6.3 43.3